createdAt,value
2019-03-22T00:00:47.674Z,4.33
2019-03-22T00:01:47.700Z,4.19
2019-03-22T00:02:47.739Z,4.08
2019-03-22T00:03:47.779Z,4.07
2019-03-22T00:04:47.825Z,3.94
2019-03-22T00:05:47.898Z,3.98
2019-03-22T00:06:47.978Z,3.96
2019-03-22T00:07:48.713Z,3.94
2019-03-22T00:08:47.989Z,3.89
2019-03-22T00:09:48.037Z,3.86
2019-03-22T00:10:48.074Z,3.76
2019-03-22T00:11:48.135Z,3.68
2019-03-22T00:12:48.155Z,3.50
2019-03-22T00:13:48.204Z,3.52
2019-03-22T00:14:48.245Z,3.54
2019-03-22T00:15:48.290Z,3.57
2019-03-22T00:16:48.353Z,3.60
2019-03-22T00:17:48.371Z,3.61
2019-03-22T00:18:48.415Z,3.70
2019-03-22T00:19:48.454Z,3.70
2019-03-22T00:20:48.503Z,3.67
2019-03-22T00:21:48.559Z,3.75
2019-03-22T00:22:48.651Z,3.79
2019-03-22T00:23:48.625Z,3.76
2019-03-22T00:24:48.662Z,3.80
2019-03-22T00:25:48.703Z,3.90
2019-03-22T00:26:48.751Z,3.85
2019-03-22T00:27:48.811Z,3.92
2019-03-22T00:28:48.830Z,3.92
2019-03-22T00:29:48.870Z,3.97
2019-03-22T00:30:48.924Z,3.94
2019-03-22T00:31:48.964Z,3.96
2019-03-22T00:32:49.022Z,3.94
2019-03-22T00:33:49.045Z,3.94
2019-03-22T00:34:49.106Z,3.86
2019-03-22T00:35:49.124Z,3.72
2019-03-22T00:36:49.166Z,3.65
2019-03-22T00:37:49.228Z,3.57
2019-03-22T00:38:49.249Z,3.53
2019-03-22T00:39:49.294Z,3.42
2019-03-22T00:40:49.332Z,3.36
2019-03-22T00:41:49.374Z,3.31
2019-03-22T00:42:49.444Z,3.28
2019-03-22T00:43:49.457Z,3.34
2019-03-22T00:44:49.495Z,3.39
2019-03-22T00:45:49.537Z,3.36
2019-03-22T00:46:49.578Z,3.50
2019-03-22T00:47:49.648Z,3.49
2019-03-22T00:48:49.663Z,3.44
2019-03-22T00:49:49.711Z,3.54
2019-03-22T00:50:49.759Z,3.46
2019-03-22T00:51:49.798Z,3.43
2019-03-22T00:52:49.853Z,3.40
2019-03-22T00:53:49.881Z,3.40
2019-03-22T00:54:49.913Z,3.40
2019-03-22T00:55:49.956Z,3.33
2019-03-22T00:56:49.996Z,3.33
2019-03-22T00:57:50.082Z,3.25
2019-03-22T00:58:50.108Z,3.28
2019-03-22T00:59:50.121Z,3.34
2019-03-22T01:00:52.316Z,3.18
2019-03-22T01:01:50.204Z,3.12
2019-03-22T01:02:50.266Z,3.00
2019-03-22T01:03:50.302Z,3.07
2019-03-22T01:04:50.351Z,3.03
2019-03-22T01:05:50.478Z,3.03
2019-03-22T01:06:50.445Z,2.92
2019-03-22T01:07:50.452Z,2.87
2019-03-22T01:08:50.576Z,2.85
2019-03-22T01:09:50.594Z,2.91
2019-03-22T01:10:50.606Z,2.89
2019-03-22T01:11:50.659Z,2.94
2019-03-22T01:12:50.744Z,2.88
2019-03-22T01:13:50.720Z,2.94
2019-03-22T01:14:50.743Z,2.95
2019-03-22T01:15:50.782Z,2.95
2019-03-22T01:16:50.827Z,2.98
2019-03-22T01:17:50.867Z,2.92
2019-03-22T01:18:50.936Z,2.76
2019-03-22T01:19:50.980Z,2.82
2019-03-22T01:20:50.990Z,2.85
2019-03-22T01:21:51.067Z,2.94
2019-03-22T01:22:51.071Z,2.91
2019-03-22T01:23:51.144Z,2.97
2019-03-22T01:24:51.171Z,2.95
2019-03-22T01:25:51.195Z,3.02
2019-03-22T01:26:51.259Z,2.97
2019-03-22T01:27:51.283Z,2.98
2019-03-22T01:28:51.357Z,2.94
2019-03-22T01:29:51.362Z,2.89
2019-03-22T01:30:51.402Z,2.94
2019-03-22T01:31:51.442Z,2.76
2019-03-22T01:32:51.483Z,2.82
2019-03-22T01:33:51.572Z,2.84
2019-03-22T01:34:51.587Z,2.82
2019-03-22T01:35:51.606Z,2.74
2019-03-22T01:36:51.645Z,2.76
2019-03-22T01:37:51.689Z,2.74
2019-03-22T01:38:51.736Z,2.69
2019-03-22T01:39:51.789Z,2.73
2019-03-22T01:40:51.862Z,2.71
2019-03-22T01:41:51.856Z,2.64
2019-03-22T01:42:51.894Z,2.66
2019-03-22T01:43:51.933Z,2.67
2019-03-22T01:44:52.008Z,2.66
2019-03-22T01:45:52.017Z,2.69
2019-03-22T01:46:52.058Z,2.71
2019-03-22T01:47:52.098Z,2.70
2019-03-22T01:48:52.148Z,2.67
2019-03-22T01:49:52.336Z,2.64
2019-03-22T01:50:52.230Z,2.69
2019-03-22T01:51:52.272Z,2.56
2019-03-22T01:52:52.304Z,2.59
2019-03-22T01:53:52.349Z,2.46
2019-03-22T01:54:52.408Z,2.40
2019-03-22T01:55:52.437Z,2.27
2019-03-22T01:56:52.563Z,2.19
2019-03-22T01:57:54.002Z,2.08
2019-03-22T01:58:52.548Z,2.10
2019-03-22T01:59:52.623Z,2.17
2019-03-22T02:00:52.630Z,2.12
2019-03-22T02:01:52.668Z,2.19
2019-03-22T02:02:52.713Z,2.16
2019-03-22T02:03:52.749Z,2.12
2019-03-22T02:04:52.820Z,2.12
2019-03-22T02:05:52.833Z,1.99
2019-03-22T02:06:52.877Z,1.97
2019-03-22T02:07:52.921Z,1.97
2019-03-22T02:08:52.958Z,1.90
2019-03-22T02:09:53.810Z,1.93
2019-03-22T02:10:53.100Z,1.93
2019-03-22T02:11:53.077Z,2.06
2019-03-22T02:12:53.117Z,2.10
2019-03-22T02:13:53.158Z,2.08
2019-03-22T02:14:53.204Z,2.12
2019-03-22T02:15:53.260Z,2.17
2019-03-22T02:16:53.281Z,2.13
2019-03-22T02:17:53.318Z,2.17
2019-03-22T02:18:53.365Z,2.15
2019-03-22T02:19:53.400Z,2.17
2019-03-22T02:20:53.466Z,2.17
2019-03-22T02:21:53.489Z,2.19
2019-03-22T02:22:53.537Z,2.12
2019-03-22T02:23:53.587Z,2.16
2019-03-22T02:24:53.616Z,2.28
2019-03-22T02:25:53.667Z,2.27
2019-03-22T02:26:53.706Z,2.27
2019-03-22T02:28:03.690Z,2.26
2019-03-22T02:28:53.766Z,2.26
2019-03-22T02:29:53.804Z,2.22
2019-03-22T02:30:53.859Z,2.13
2019-03-22T02:31:53.957Z,2.15
2019-03-22T02:32:53.944Z,2.06
2019-03-22T02:33:53.968Z,1.98
2019-03-22T02:34:54.019Z,1.93
2019-03-22T02:35:54.082Z,1.80
2019-03-22T02:36:54.110Z,1.76
2019-03-22T02:37:54.142Z,1.90
2019-03-22T02:38:54.222Z,1.80
2019-03-22T02:39:54.228Z,1.85
2019-03-22T02:40:54.277Z,2.04
2019-03-22T02:41:54.308Z,1.97
2019-03-22T02:42:54.332Z,1.89
2019-03-22T02:43:54.837Z,1.90
2019-03-22T02:44:54.413Z,1.80
2019-03-22T02:45:54.535Z,1.87
2019-03-22T02:46:54.494Z,1.85
2019-03-22T02:47:54.534Z,1.85
2019-03-22T02:48:55.289Z,1.94
2019-03-22T02:49:54.615Z,1.93
2019-03-22T02:50:56.402Z,1.93
2019-03-22T02:51:54.718Z,1.93
2019-03-22T02:52:54.748Z,1.93
2019-03-22T02:53:54.775Z,1.89
2019-03-22T02:54:54.949Z,1.93
2019-03-22T02:55:54.966Z,1.91
2019-03-22T02:56:54.931Z,1.93
2019-03-22T02:57:54.984Z,1.94
2019-03-22T02:58:54.978Z,1.93
2019-03-22T02:59:55.016Z,1.97
2019-03-22T03:00:55.068Z,1.97
2019-03-22T03:01:55.226Z,1.82
2019-03-22T03:02:55.140Z,1.87
2019-03-22T03:03:55.189Z,1.83
2019-03-22T03:04:55.220Z,1.85
2019-03-22T03:05:55.263Z,1.78
2019-03-22T03:06:55.318Z,1.83
2019-03-22T03:07:55.353Z,1.80
2019-03-22T03:08:55.377Z,1.78
2019-03-22T03:09:55.417Z,1.76
2019-03-22T03:10:55.457Z,1.73
2019-03-22T03:11:55.505Z,1.79
2019-03-22T03:12:55.557Z,1.73
2019-03-22T03:13:55.588Z,1.75
2019-03-22T03:14:55.618Z,1.65
2019-03-22T03:15:55.658Z,1.76
2019-03-22T03:16:55.698Z,1.69
2019-03-22T03:17:55.758Z,1.62
2019-03-22T03:18:55.778Z,1.46
2019-03-22T03:19:55.820Z,1.44
2019-03-22T03:20:55.866Z,1.40
2019-03-22T03:21:55.899Z,1.39
2019-03-22T03:22:55.971Z,1.43
2019-03-22T03:23:55.985Z,1.46
2019-03-22T03:24:56.020Z,1.34
2019-03-22T03:25:56.062Z,1.42
2019-03-22T03:26:56.100Z,1.36
2019-03-22T03:27:56.159Z,1.39
2019-03-22T03:28:56.202Z,1.37
2019-03-22T03:29:56.230Z,1.44
2019-03-22T03:30:56.278Z,1.44
2019-03-22T03:31:56.326Z,1.42
2019-03-22T03:32:56.365Z,1.44
2019-03-22T03:33:56.382Z,1.43
2019-03-22T03:34:56.430Z,1.43
2019-03-22T03:35:56.463Z,1.36
2019-03-22T03:36:56.508Z,1.37
2019-03-22T03:37:56.576Z,1.33
2019-03-22T03:38:56.585Z,1.39
2019-03-22T03:39:56.618Z,1.39
2019-03-22T03:40:56.672Z,1.40
2019-03-22T03:41:56.699Z,1.40
2019-03-22T03:42:56.770Z,1.39
2019-03-22T03:43:56.779Z,1.34
2019-03-22T03:44:56.824Z,1.40
2019-03-22T03:45:56.871Z,1.47
2019-03-22T03:46:56.902Z,1.34
2019-03-22T03:47:57.025Z,1.40
2019-03-22T03:48:57.322Z,1.40
2019-03-22T03:49:57.020Z,1.34
2019-03-22T03:50:57.061Z,1.33
2019-03-22T03:51:57.101Z,1.29
2019-03-22T03:52:57.140Z,1.29
2019-03-22T03:53:57.238Z,1.34
2019-03-22T03:54:57.226Z,1.37
2019-03-22T03:55:57.315Z,1.25
2019-03-22T03:56:57.319Z,1.43
2019-03-22T03:57:57.355Z,1.40
2019-03-22T03:58:57.406Z,1.42
2019-03-22T03:59:57.518Z,1.36
2019-03-22T04:00:57.469Z,1.26
2019-03-22T04:01:57.504Z,1.19
2019-03-22T04:02:57.675Z,1.15
2019-03-22T04:03:57.606Z,1.22
2019-03-22T04:04:57.627Z,1.14
2019-03-22T04:05:57.665Z,1.10
2019-03-22T04:06:57.698Z,1.16
2019-03-22T04:07:57.740Z,1.19
2019-03-22T04:08:57.804Z,1.19
2019-03-22T04:09:57.884Z,1.32
2019-03-22T04:10:57.871Z,1.25
2019-03-22T04:11:57.899Z,1.37
2019-03-22T04:12:57.949Z,1.33
2019-03-22T04:13:57.977Z,1.34
2019-03-22T04:14:58.044Z,1.40
2019-03-22T04:15:58.057Z,1.34
2019-03-22T04:16:58.099Z,1.34
2019-03-22T04:17:58.139Z,1.39
2019-03-22T04:18:58.182Z,1.43
2019-03-22T04:19:58.240Z,1.43
2019-03-22T04:20:58.264Z,1.39
2019-03-22T04:21:58.303Z,1.39
2019-03-22T04:22:58.337Z,1.36
2019-03-22T04:23:58.501Z,1.37
2019-03-22T04:24:58.447Z,1.34
2019-03-22T04:25:58.457Z,1.36
2019-03-22T04:26:58.512Z,1.34
2019-03-22T04:27:58.545Z,1.28
2019-03-22T04:29:07.135Z,1.24
2019-03-22T04:29:58.649Z,1.25
2019-03-22T04:30:58.718Z,1.26
2019-03-22T04:31:58.695Z,1.26
2019-03-22T04:32:58.743Z,1.34
2019-03-22T04:33:58.776Z,1.32
2019-03-22T04:34:58.840Z,1.29
2019-03-22T04:35:58.863Z,1.29
2019-03-22T04:36:58.898Z,1.25
2019-03-22T04:37:58.963Z,1.37
2019-03-22T04:38:58.974Z,1.42
2019-03-22T04:39:59.038Z,1.37
2019-03-22T04:40:59.071Z,1.37
2019-03-22T04:41:59.107Z,1.33
2019-03-22T04:42:59.135Z,1.28
2019-03-22T04:43:59.185Z,1.29
2019-03-22T04:44:59.234Z,1.29
2019-03-22T04:45:59.973Z,1.33
2019-03-22T04:46:59.292Z,1.29
2019-03-22T04:47:59.333Z,1.39
2019-03-22T04:48:59.381Z,1.34
2019-03-22T04:49:59.411Z,1.32
2019-03-22T04:50:59.471Z,1.28
2019-03-22T04:51:59.492Z,1.32
2019-03-22T04:52:59.529Z,1.28
2019-03-22T04:53:59.590Z,1.37
2019-03-22T04:54:59.634Z,1.19
2019-03-22T04:55:59.674Z,1.21
2019-03-22T04:56:59.695Z,1.19
2019-03-22T04:57:59.756Z,1.28
2019-03-22T04:58:59.770Z,1.29
2019-03-22T04:59:59.807Z,1.19
2019-03-22T05:00:59.893Z,1.18
2019-03-22T05:01:59.889Z,1.12
2019-03-22T05:02:59.929Z,1.04
2019-03-22T05:03:59.970Z,1.03
2019-03-22T05:05:00.106Z,1.03
2019-03-22T05:06:00.080Z,1.00
2019-03-22T05:07:00.111Z,0.98
2019-03-22T05:08:00.164Z,1.03
2019-03-22T05:09:00.169Z,1.00
2019-03-22T05:10:00.445Z,1.01
2019-03-22T05:11:00.287Z,1.03
2019-03-22T05:12:00.283Z,1.04
2019-03-22T05:13:00.325Z,0.98
2019-03-22T05:14:00.368Z,1.00
2019-03-22T05:15:00.459Z,1.07
2019-03-22T05:16:00.466Z,1.08
2019-03-22T05:17:00.504Z,1.12
2019-03-22T05:18:00.524Z,1.08
2019-03-22T05:19:00.567Z,1.04
2019-03-22T05:20:00.615Z,1.01
2019-03-22T05:21:00.644Z,0.97
2019-03-22T05:22:00.771Z,1.00
2019-03-22T05:23:00.729Z,0.92
2019-03-22T05:24:00.760Z,0.97
2019-03-22T05:25:00.802Z,1.00
2019-03-22T05:26:00.853Z,0.90
2019-03-22T05:27:00.914Z,1.00
2019-03-22T05:28:00.920Z,1.01
2019-03-22T05:29:00.973Z,1.03
2019-03-22T05:30:01.005Z,1.04
2019-03-22T05:31:01.048Z,1.12
2019-03-22T05:32:01.113Z,1.10
2019-03-22T05:33:01.121Z,1.12
2019-03-22T05:34:01.158Z,1.25
2019-03-22T05:35:01.205Z,1.21
2019-03-22T05:36:01.297Z,1.18
2019-03-22T05:37:01.308Z,1.08
2019-03-22T05:38:01.324Z,1.06
2019-03-22T05:39:01.355Z,0.98
2019-03-22T05:40:01.404Z,0.97
2019-03-22T05:41:01.448Z,0.89
2019-03-22T05:42:01.503Z,0.86
2019-03-22T05:43:01.549Z,0.68
2019-03-22T05:44:01.559Z,0.79
2019-03-22T05:45:01.603Z,0.70
2019-03-22T05:46:01.646Z,0.72
2019-03-22T05:47:01.672Z,0.71
2019-03-22T05:48:01.735Z,0.85
2019-03-22T05:49:01.758Z,0.78
2019-03-22T05:50:01.835Z,0.85
2019-03-22T05:51:01.832Z,0.85
2019-03-22T05:52:01.881Z,0.90
2019-03-22T05:53:01.944Z,0.90
2019-03-22T05:54:01.961Z,0.89
2019-03-22T05:55:01.995Z,0.98
2019-03-22T05:56:02.037Z,0.98
2019-03-22T05:57:12.862Z,0.97
2019-03-22T05:58:02.137Z,1.12
2019-03-22T05:59:02.196Z,1.15
2019-03-22T06:00:02.186Z,1.08
2019-03-22T06:01:02.232Z,1.16
2019-03-22T06:02:02.266Z,1.32
2019-03-22T06:03:02.306Z,1.25
2019-03-22T06:04:02.365Z,1.33
2019-03-22T06:05:02.385Z,1.42
2019-03-22T06:06:02.488Z,1.52
2019-03-22T06:07:02.477Z,1.55
2019-03-22T06:08:02.505Z,1.52
2019-03-22T06:09:02.596Z,1.54
2019-03-22T06:10:02.597Z,1.51
2019-03-22T06:11:02.636Z,1.57
2019-03-22T06:12:02.681Z,1.50
2019-03-22T06:13:02.726Z,1.58
2019-03-22T06:14:02.763Z,1.64
2019-03-22T06:15:02.781Z,1.65
2019-03-22T06:16:02.828Z,1.76
2019-03-22T06:17:02.892Z,1.68
2019-03-22T06:18:02.902Z,1.75
2019-03-22T06:19:02.970Z,1.82
2019-03-22T06:20:02.982Z,1.90
2019-03-22T06:21:03.031Z,1.98
2019-03-22T06:22:03.065Z,2.01
2019-03-22T06:23:03.101Z,2.13
2019-03-22T06:24:03.168Z,2.16
2019-03-22T06:25:03.196Z,2.23
2019-03-22T06:26:03.229Z,2.28
2019-03-22T06:27:03.274Z,2.34
2019-03-22T06:28:03.303Z,2.44
2019-03-22T06:29:03.374Z,2.51
2019-03-22T06:30:03.385Z,2.70
2019-03-22T06:31:03.435Z,2.87
2019-03-22T06:32:03.467Z,3.13
2019-03-22T06:33:03.514Z,3.57
2019-03-22T06:34:03.583Z,3.90
2019-03-22T06:35:03.587Z,4.10
2019-03-22T06:36:03.630Z,4.34
2019-03-22T06:37:03.685Z,4.61
2019-03-22T06:38:03.720Z,5.20
2019-03-22T06:39:03.818Z,5.74
2019-03-22T06:40:03.803Z,5.93
2019-03-22T06:41:03.838Z,5.85
2019-03-22T06:42:03.876Z,5.92
2019-03-22T06:43:03.923Z,6.09
2019-03-22T06:44:03.975Z,6.33
2019-03-22T06:45:04.017Z,6.38
2019-03-22T06:46:04.050Z,6.54
2019-03-22T06:47:04.089Z,6.91
2019-03-22T06:48:04.139Z,7.29
2019-03-22T06:49:04.167Z,7.85
2019-03-22T06:50:04.239Z,8.08
2019-03-22T06:51:04.261Z,8.22
2019-03-22T06:52:04.296Z,8.40
2019-03-22T06:53:04.346Z,8.53
2019-03-22T06:54:04.393Z,8.71
2019-03-22T06:55:04.444Z,8.84
2019-03-22T06:56:04.471Z,9.49
2019-03-22T06:57:04.510Z,10.25
2019-03-22T06:58:04.562Z,10.81
2019-03-22T06:59:04.642Z,11.54
2019-03-22T07:00:06.817Z,11.93
2019-03-22T07:01:04.688Z,11.67
2019-03-22T07:02:04.731Z,11.20
2019-03-22T07:03:04.775Z,11.25
2019-03-22T07:04:04.814Z,11.44
2019-03-22T07:05:04.900Z,11.24
2019-03-22T07:06:04.977Z,10.84
2019-03-22T07:07:04.949Z,10.99
2019-03-22T07:08:04.992Z,11.14
2019-03-22T07:09:05.047Z,11.17
2019-03-22T07:10:05.114Z,11.47
2019-03-22T07:11:05.131Z,11.94
2019-03-22T07:12:05.181Z,11.71
2019-03-22T07:13:05.222Z,11.21
2019-03-22T07:14:05.283Z,11.61
2019-03-22T07:15:05.470Z,11.57
2019-03-22T07:16:05.384Z,11.52
2019-03-22T07:17:05.401Z,11.85
2019-03-22T07:18:05.457Z,12.21
2019-03-22T07:19:05.502Z,12.27
2019-03-22T07:20:05.540Z,12.05
2019-03-22T07:21:05.603Z,11.89
2019-03-22T07:22:05.644Z,12.21
2019-03-22T07:23:05.673Z,12.49
2019-03-22T07:24:05.723Z,12.96
2019-03-22T07:25:05.767Z,12.05
2019-03-22T07:26:05.831Z,11.44
2019-03-22T07:27:05.858Z,11.61
2019-03-22T07:28:05.906Z,11.39
2019-03-22T07:29:05.955Z,11.50
2019-03-22T07:30:17.691Z,11.31
2019-03-22T07:31:06.065Z,11.20
2019-03-22T07:32:06.091Z,11.06
2019-03-22T07:33:06.139Z,11.31
2019-03-22T07:34:06.181Z,10.88
2019-03-22T07:35:06.230Z,11.14
2019-03-22T07:36:06.292Z,11.34
2019-03-22T07:37:06.343Z,11.47
2019-03-22T07:38:06.369Z,11.16
2019-03-22T07:39:06.416Z,11.61
2019-03-22T07:40:06.481Z,11.97
2019-03-22T07:41:06.534Z,12.37
2019-03-22T07:42:06.583Z,12.69
2019-03-22T07:43:06.610Z,13.06
2019-03-22T07:44:06.651Z,13.09
2019-03-22T07:45:06.697Z,13.52
2019-03-22T07:46:06.746Z,13.69
2019-03-22T07:47:06.951Z,12.96
2019-03-22T07:48:06.842Z,12.69
2019-03-22T07:49:06.889Z,12.44
2019-03-22T07:50:06.944Z,12.54
2019-03-22T07:51:06.982Z,13.00
2019-03-22T07:52:07.061Z,12.41
2019-03-22T07:53:07.074Z,12.42
2019-03-22T07:54:07.132Z,12.29
2019-03-22T07:55:07.179Z,11.54
2019-03-22T07:56:07.219Z,10.62
2019-03-22T07:57:07.292Z,10.53
2019-03-22T07:58:07.320Z,10.94
2019-03-22T07:59:09.752Z,10.52
2019-03-22T08:00:07.411Z,10.91
2019-03-22T08:01:07.460Z,11.10
2019-03-22T08:02:07.535Z,11.68
2019-03-22T08:03:07.557Z,11.64
2019-03-22T08:04:07.601Z,12.08
2019-03-22T08:05:07.656Z,12.11
2019-03-22T08:06:07.707Z,11.47
2019-03-22T08:07:07.775Z,11.32
2019-03-22T08:08:07.803Z,11.47
2019-03-22T08:09:07.858Z,11.27
2019-03-22T08:10:07.910Z,11.10
2019-03-22T08:11:07.941Z,11.68
2019-03-22T08:12:08.027Z,12.38
2019-03-22T08:13:08.141Z,11.94
2019-03-22T08:14:08.102Z,11.32
2019-03-22T08:15:08.563Z,11.28
2019-03-22T08:16:08.180Z,11.41
2019-03-22T08:17:08.230Z,11.82
2019-03-22T08:18:08.319Z,11.57
2019-03-22T08:19:08.413Z,11.67
2019-03-22T08:20:08.417Z,11.74
2019-03-22T08:21:08.432Z,11.57
2019-03-22T08:22:08.495Z,11.50
2019-03-22T08:23:08.657Z,11.16
2019-03-22T08:24:08.596Z,11.32
2019-03-22T08:25:08.621Z,11.53
2019-03-22T08:26:08.697Z,11.62
2019-03-22T08:27:08.711Z,12.05
2019-03-22T08:28:08.789Z,11.77
2019-03-22T08:29:08.820Z,11.65
2019-03-22T08:30:08.966Z,11.56
2019-03-22T08:31:08.948Z,11.29
2019-03-22T08:32:08.954Z,11.32
2019-03-22T08:33:09.024Z,10.78
2019-03-22T08:34:09.124Z,10.71
2019-03-22T08:35:09.162Z,11.10
2019-03-22T08:36:09.156Z,11.29
2019-03-22T08:37:09.216Z,10.92
2019-03-22T08:38:09.254Z,11.32
2019-03-22T08:39:09.318Z,11.50
2019-03-22T08:40:09.353Z,11.86
2019-03-22T08:41:09.414Z,11.54
2019-03-22T08:42:09.489Z,11.14
2019-03-22T08:43:09.517Z,11.24
2019-03-22T08:44:09.583Z,11.46
2019-03-22T08:45:11.426Z,11.75
2019-03-22T08:46:09.640Z,12.24
2019-03-22T08:47:09.703Z,12.96
2019-03-22T08:48:09.737Z,12.95
2019-03-22T08:49:09.993Z,12.29
2019-03-22T08:50:09.870Z,11.06
2019-03-22T08:51:09.888Z,10.63
2019-03-22T08:52:09.937Z,10.40
2019-03-22T08:53:09.988Z,10.92
2019-03-22T08:54:10.077Z,11.07
2019-03-22T08:55:10.097Z,11.28
2019-03-22T08:56:10.136Z,11.70
2019-03-22T08:57:10.179Z,11.09
2019-03-22T08:58:10.231Z,11.46
2019-03-22T08:59:13.264Z,12.09
2019-03-22T09:00:10.333Z,12.75
2019-03-22T09:01:10.427Z,13.56
2019-03-22T09:02:10.425Z,13.56
2019-03-22T09:03:10.471Z,13.44
2019-03-22T09:04:10.562Z,13.21
2019-03-22T09:05:10.612Z,13.07
2019-03-22T09:06:10.630Z,13.11
2019-03-22T09:07:10.720Z,12.12
2019-03-22T09:08:10.729Z,11.36
2019-03-22T09:09:10.779Z,11.17
2019-03-22T09:10:10.857Z,11.31
2019-03-22T09:11:10.870Z,11.31
2019-03-22T09:12:10.918Z,11.27
2019-03-22T09:13:10.972Z,11.49
2019-03-22T09:14:11.049Z,11.41
2019-03-22T09:15:11.138Z,11.36
2019-03-22T09:16:11.137Z,11.20
2019-03-22T09:17:11.175Z,11.56
2019-03-22T09:18:11.248Z,11.86
2019-03-22T09:19:11.301Z,12.15
2019-03-22T09:20:11.338Z,12.15
2019-03-22T09:21:11.417Z,12.52
2019-03-22T09:22:11.423Z,12.26
2019-03-22T09:23:11.489Z,12.19
2019-03-22T09:24:11.524Z,12.66
2019-03-22T09:25:11.602Z,12.24
2019-03-22T09:26:11.679Z,11.68
2019-03-22T09:27:11.688Z,11.46
2019-03-22T09:28:11.771Z,11.34
2019-03-22T09:29:11.819Z,10.99
2019-03-22T09:30:11.937Z,11.32
2019-03-22T09:31:12.042Z,12.04
2019-03-22T09:32:11.924Z,11.75
2019-03-22T09:33:13.384Z,11.59
2019-03-22T09:34:12.089Z,11.99
2019-03-22T09:35:12.102Z,12.31
2019-03-22T09:36:12.111Z,12.19
2019-03-22T09:37:12.264Z,11.90
2019-03-22T09:38:13.278Z,12.06
2019-03-22T09:39:12.262Z,12.20
2019-03-22T09:40:12.453Z,12.38
2019-03-22T09:41:12.366Z,11.57
2019-03-22T09:42:12.420Z,11.32
2019-03-22T09:43:12.494Z,11.31
2019-03-22T09:44:12.585Z,11.53
2019-03-22T09:45:14.362Z,11.32
2019-03-22T09:46:12.629Z,11.10
2019-03-22T09:47:12.691Z,11.41
2019-03-22T09:48:12.787Z,11.72
2019-03-22T09:49:12.766Z,11.96
2019-03-22T09:50:12.851Z,11.61
2019-03-22T09:51:12.938Z,11.87
2019-03-22T09:52:12.944Z,12.29
2019-03-22T09:53:12.965Z,12.38
2019-03-22T09:54:13.068Z,12.41
2019-03-22T09:55:14.256Z,11.83
2019-03-22T09:56:13.169Z,11.80
2019-03-22T09:57:13.220Z,11.74
2019-03-22T09:58:13.221Z,11.50
2019-03-22T09:59:13.268Z,11.34
2019-03-22T10:00:13.334Z,11.41
2019-03-22T10:01:23.141Z,11.68
2019-03-22T10:02:13.453Z,12.27
2019-03-22T10:03:13.464Z,12.33
2019-03-22T10:04:13.513Z,12.13
2019-03-22T10:05:13.576Z,12.19
2019-03-22T10:06:13.676Z,12.20
2019-03-22T10:07:13.663Z,12.44
2019-03-22T10:08:13.758Z,12.63
2019-03-22T10:09:13.771Z,12.84
2019-03-22T10:10:13.813Z,12.93
2019-03-22T10:11:13.995Z,13.33
2019-03-22T10:12:13.950Z,13.54
2019-03-22T10:13:13.965Z,12.85
2019-03-22T10:14:14.066Z,12.52
2019-03-22T10:15:14.077Z,12.48
2019-03-22T10:16:14.171Z,12.92
2019-03-22T10:17:14.218Z,12.29
2019-03-22T10:18:14.224Z,12.11
2019-03-22T10:19:14.282Z,11.94
2019-03-22T10:20:14.322Z,11.39
2019-03-22T10:21:22.479Z,10.66
2019-03-22T10:22:14.428Z,10.39
2019-03-22T10:23:14.477Z,10.62
2019-03-22T10:24:14.529Z,10.76
2019-03-22T10:25:14.574Z,10.70
2019-03-22T10:26:14.737Z,10.91
2019-03-22T10:27:14.713Z,10.99
2019-03-22T10:28:14.734Z,10.98
2019-03-22T10:29:14.815Z,11.29
2019-03-22T10:30:14.850Z,12.05
2019-03-22T10:31:14.913Z,12.93
2019-03-22T10:32:14.982Z,13.17
2019-03-22T10:33:22.520Z,12.63
2019-03-22T10:34:15.030Z,12.46
2019-03-22T10:35:25.359Z,12.96
2019-03-22T10:36:15.176Z,13.44
2019-03-22T10:37:15.205Z,13.80
2019-03-22T10:38:16.245Z,14.43
2019-03-22T10:39:15.311Z,14.88
2019-03-22T10:40:15.403Z,15.33
2019-03-22T10:41:15.375Z,15.60
2019-03-22T10:42:15.457Z,15.46
2019-03-22T10:43:15.488Z,15.24
2019-03-22T10:44:15.604Z,15.08
2019-03-22T10:45:15.586Z,14.90
2019-03-22T10:46:15.632Z,14.67
2019-03-22T10:47:18.048Z,14.87
2019-03-22T10:48:15.830Z,14.28
2019-03-22T10:49:15.864Z,14.39
2019-03-22T10:50:15.845Z,14.16
2019-03-22T10:51:15.883Z,13.02
2019-03-22T10:52:15.962Z,12.23
2019-03-22T10:53:16.099Z,12.39
2019-03-22T10:54:16.063Z,12.48
2019-03-22T10:55:29.244Z,12.56
2019-03-22T10:56:16.143Z,12.67
2019-03-22T10:57:16.201Z,12.97
2019-03-22T10:58:21.335Z,13.58
2019-03-22T10:59:16.296Z,14.17
2019-03-22T11:00:16.346Z,14.25
2019-03-22T11:01:16.404Z,14.24
2019-03-22T11:02:16.456Z,13.32
2019-03-22T11:03:16.534Z,12.62
2019-03-22T11:04:16.557Z,12.19
2019-03-22T11:05:16.636Z,12.31
2019-03-22T11:06:25.798Z,12.46
2019-03-22T11:07:16.713Z,13.18
2019-03-22T11:08:16.793Z,13.15
2019-03-22T11:09:16.831Z,13.00
2019-03-22T11:10:16.862Z,13.25
2019-03-22T11:11:16.908Z,13.59
2019-03-22T11:12:16.977Z,13.70
2019-03-22T11:13:17.009Z,14.21
2019-03-22T11:14:17.088Z,14.10
2019-03-22T11:15:17.121Z,13.81
2019-03-22T11:16:17.263Z,13.58
2019-03-22T11:17:17.219Z,13.58
2019-03-22T11:18:17.276Z,13.52
2019-03-22T11:19:17.348Z,13.18
2019-03-22T11:20:17.387Z,13.22
2019-03-22T11:21:17.420Z,13.55
2019-03-22T11:22:17.486Z,13.55
2019-03-22T11:23:17.585Z,13.59
2019-03-22T11:24:17.574Z,13.04
2019-03-22T11:25:17.652Z,12.84
2019-03-22T11:26:17.676Z,12.77
2019-03-22T11:27:17.725Z,12.88
2019-03-22T11:28:17.776Z,12.88
2019-03-22T11:29:17.845Z,12.78
2019-03-22T11:30:17.898Z,12.69
2019-03-22T11:31:17.932Z,12.51
2019-03-22T11:32:17.984Z,12.75
2019-03-22T11:33:18.035Z,12.52
2019-03-22T11:34:18.107Z,12.60
2019-03-22T11:35:19.027Z,12.46
2019-03-22T11:36:18.190Z,12.39
2019-03-22T11:37:18.237Z,12.39
2019-03-22T11:38:18.285Z,11.96
2019-03-22T11:39:18.360Z,12.44
2019-03-22T11:40:18.399Z,12.27
2019-03-22T11:41:18.437Z,12.26
2019-03-22T11:42:18.493Z,12.23
2019-03-22T11:43:18.546Z,11.89
2019-03-22T11:44:18.614Z,11.86
2019-03-22T11:45:18.644Z,11.96
2019-03-22T11:46:18.721Z,12.09
2019-03-22T11:47:18.759Z,12.42
2019-03-22T11:48:18.799Z,12.81
2019-03-22T11:49:18.848Z,12.93
2019-03-22T11:50:19.036Z,13.00
2019-03-22T11:51:18.948Z,12.93
2019-03-22T11:52:18.996Z,12.63
2019-03-22T11:53:19.045Z,12.26
2019-03-22T11:54:19.098Z,12.45
2019-03-22T11:55:19.187Z,13.15
2019-03-22T11:56:19.232Z,13.74
2019-03-22T11:57:19.255Z,13.62
2019-03-22T11:58:19.313Z,13.33
2019-03-22T11:59:19.363Z,13.61
2019-03-22T12:00:19.408Z,14.01
2019-03-22T12:01:22.245Z,13.54
2019-03-22T12:02:22.502Z,13.20
2019-03-22T12:03:19.560Z,13.14
2019-03-22T12:04:19.612Z,13.38
2019-03-22T12:05:19.658Z,13.12
2019-03-22T12:06:19.738Z,12.82
2019-03-22T12:07:19.762Z,13.04
2019-03-22T12:08:19.815Z,12.92
2019-03-22T12:09:19.882Z,12.69
2019-03-22T12:10:19.945Z,12.20
2019-03-22T12:11:20.017Z,12.29
2019-03-22T12:12:20.039Z,12.48
2019-03-22T12:13:20.075Z,12.96
2019-03-22T12:14:20.131Z,12.93
2019-03-22T12:15:20.183Z,12.85
2019-03-22T12:16:20.258Z,12.89
2019-03-22T12:17:20.292Z,13.21
2019-03-22T12:18:20.340Z,13.14
2019-03-22T12:19:20.428Z,13.43
2019-03-22T12:20:20.441Z,13.98
2019-03-22T12:21:20.500Z,14.60
2019-03-22T12:22:20.537Z,14.90
2019-03-22T12:23:20.602Z,15.33
2019-03-22T12:24:20.639Z,14.88
2019-03-22T12:25:20.693Z,14.93
2019-03-22T12:26:20.777Z,14.35
2019-03-22T12:27:20.800Z,14.53
2019-03-22T12:28:20.855Z,15.12
2019-03-22T12:29:20.908Z,15.56
2019-03-22T12:30:20.975Z,15.60
2019-03-22T12:31:21.028Z,15.72
2019-03-22T12:32:21.055Z,15.12
2019-03-22T12:33:21.109Z,14.71
2019-03-22T12:34:21.164Z,13.55
2019-03-22T12:35:21.218Z,13.44
2019-03-22T12:36:21.304Z,12.95
2019-03-22T12:37:21.329Z,12.71
2019-03-22T12:38:21.375Z,12.70
2019-03-22T12:39:21.437Z,13.18
2019-03-22T12:40:21.481Z,13.56
2019-03-22T12:41:21.554Z,13.84
2019-03-22T12:42:21.596Z,14.13
2019-03-22T12:43:21.643Z,14.56
2019-03-22T12:44:21.693Z,14.49
2019-03-22T12:45:21.741Z,14.25
2019-03-22T12:46:21.826Z,14.37
2019-03-22T12:47:21.847Z,14.64
2019-03-22T12:48:21.908Z,13.76
2019-03-22T12:49:21.958Z,13.40
2019-03-22T12:50:22.031Z,13.63
2019-03-22T12:51:22.081Z,13.41
2019-03-22T12:52:22.132Z,13.32
2019-03-22T12:53:22.165Z,13.14
2019-03-22T12:54:22.220Z,13.11
2019-03-22T12:55:22.305Z,13.33
2019-03-22T12:56:22.334Z,13.46
2019-03-22T12:57:22.407Z,13.76
2019-03-22T12:58:22.447Z,13.91
2019-03-22T12:59:22.496Z,13.81
2019-03-22T13:00:22.539Z,13.80
2019-03-22T13:01:22.591Z,13.83
2019-03-22T13:02:22.677Z,13.99
2019-03-22T13:03:24.311Z,14.02
2019-03-22T13:04:22.749Z,14.27
2019-03-22T13:05:22.802Z,14.14
2019-03-22T13:06:22.877Z,14.02
2019-03-22T13:07:22.950Z,13.95